createdAt,value
2023-02-09T00:02:13.618Z,4.70
2023-02-09T00:04:41.761Z,3.80
2023-02-09T00:07:09.761Z,3.63
2023-02-09T00:09:37.872Z,3.87
2023-02-09T00:12:23.932Z,3.93
2023-02-09T00:14:53.588Z,3.87
2023-02-09T00:17:21.621Z,4.10
2023-02-09T00:19:49.712Z,4.33
2023-02-09T00:22:17.794Z,3.10
2023-02-09T00:24:46.389Z,3.97
2023-02-09T00:27:14.432Z,4.40
2023-02-09T00:29:42.609Z,3.87
2023-02-09T00:32:12.164Z,4.00
2023-02-09T00:34:41.468Z,3.20
2023-02-09T00:37:09.534Z,4.07
2023-02-09T00:39:37.584Z,4.77
2023-02-09T00:42:06.956Z,3.47
2023-02-09T00:44:35.952Z,3.03
2023-02-09T00:47:04.608Z,3.57
2023-02-09T00:49:34.423Z,3.77
2023-02-09T00:52:02.707Z,4.13
2023-02-09T00:54:30.921Z,3.23
2023-02-09T00:57:05.214Z,3.30
2023-02-09T00:59:36.387Z,3.30
2023-02-09T01:02:05.060Z,3.47
2023-02-09T01:04:35.074Z,3.90
2023-02-09T01:07:03.182Z,3.50
2023-02-09T01:09:31.581Z,3.53
2023-02-09T01:11:59.839Z,4.10
2023-02-09T01:14:28.041Z,3.80
2023-02-09T01:16:56.229Z,3.70
2023-02-09T01:19:27.699Z,3.60
2023-02-09T01:21:57.605Z,3.47
2023-02-09T01:24:25.964Z,3.67
2023-02-09T01:26:54.087Z,3.67
2023-02-09T01:29:22.897Z,3.90
2023-02-09T01:31:51.167Z,3.47
2023-02-09T01:34:19.959Z,3.53
2023-02-09T01:36:50.711Z,4.40
2023-02-09T01:39:20.192Z,3.63
2023-02-09T01:41:48.568Z,3.87
2023-02-09T01:45:04.966Z,4.17
2023-02-09T01:47:41.414Z,3.63
2023-02-09T01:50:10.038Z,3.47
2023-02-09T01:52:38.653Z,3.70
2023-02-09T01:55:14.774Z,3.80
2023-02-09T01:57:49.063Z,3.20
2023-02-09T02:00:20.864Z,3.50
2023-02-09T02:02:53.981Z,3.63
2023-02-09T02:05:24.319Z,4.00
2023-02-09T02:08:01.786Z,4.20
2023-02-09T02:10:32.340Z,4.50
2023-02-09T02:13:01.642Z,4.57
2023-02-09T02:15:40.877Z,3.83
2023-02-09T02:18:28.121Z,3.80
2023-02-09T02:21:45.151Z,3.40
2023-02-09T02:25:06.175Z,3.63
2023-02-09T02:27:47.457Z,3.63
2023-02-09T02:30:44.954Z,3.57
2023-02-09T02:33:30.184Z,3.73
2023-02-09T02:36:09.277Z,3.67
2023-02-09T02:38:46.829Z,4.97
2023-02-09T02:41:24.395Z,3.67
2023-02-09T02:44:04.079Z,3.73
2023-02-09T02:46:40.554Z,3.93
2023-02-09T02:49:18.666Z,3.70
2023-02-09T02:51:51.286Z,4.10
2023-02-09T02:54:30.594Z,4.83
2023-02-09T02:57:03.612Z,3.63
2023-02-09T02:59:36.636Z,3.93
2023-02-09T03:02:12.528Z,4.20
2023-02-09T03:04:45.330Z,3.80
2023-02-09T03:07:13.386Z,3.80
2023-02-09T03:09:50.564Z,3.97
2023-02-09T03:12:33.337Z,4.03
2023-02-09T03:15:19.391Z,3.60
2023-02-09T03:17:55.008Z,3.93
2023-02-09T03:20:34.211Z,3.67
2023-02-09T03:23:05.916Z,3.83
2023-02-09T03:25:41.217Z,3.93
2023-02-09T03:28:15.654Z,3.27
2023-02-09T03:30:49.847Z,3.83
2023-02-09T03:33:21.449Z,4.50
2023-02-09T03:35:54.345Z,4.53
2023-02-09T03:38:22.781Z,4.57
2023-02-09T03:40:50.932Z,3.80
2023-02-09T03:43:19.073Z,3.53
2023-02-09T03:45:47.231Z,3.47
2023-02-09T03:48:15.311Z,3.47
2023-02-09T03:50:43.835Z,3.40
2023-02-09T03:53:13.721Z,3.53
2023-02-09T03:55:42.950Z,4.10
2023-02-09T03:58:11.018Z,3.53
2023-02-09T04:00:39.462Z,3.40
2023-02-09T04:03:07.564Z,3.67
2023-02-09T04:05:35.625Z,4.13
2023-02-09T04:08:03.654Z,4.23
2023-02-09T04:10:33.060Z,4.10
2023-02-09T04:13:01.233Z,4.07
2023-02-09T04:15:29.330Z,3.53
2023-02-09T04:17:57.356Z,3.63
2023-02-09T04:20:25.465Z,3.60
2023-02-09T04:22:53.474Z,3.87
2023-02-09T04:25:21.892Z,4.33
2023-02-09T04:27:51.503Z,3.60
2023-02-09T04:30:20.124Z,3.63
2023-02-09T04:32:48.153Z,4.17
2023-02-09T04:35:16.557Z,4.13
2023-02-09T04:37:44.604Z,3.87
2023-02-09T04:40:13.194Z,3.60
2023-02-09T04:42:41.263Z,3.50
2023-02-09T04:45:10.965Z,4.60
2023-02-09T04:47:39.061Z,4.07
2023-02-09T04:50:07.703Z,3.37
2023-02-09T04:52:35.805Z,2.63
2023-02-09T04:55:03.926Z,3.43
2023-02-09T04:57:49.981Z,4.07
2023-02-09T05:00:20.082Z,3.80
2023-02-09T05:02:48.215Z,4.03
2023-02-09T05:05:16.505Z,3.47
2023-02-09T05:07:44.535Z,4.87
2023-02-09T05:10:12.710Z,4.17
2023-02-09T05:12:40.867Z,4.83
2023-02-09T05:15:10.147Z,4.57
2023-02-09T05:17:39.598Z,4.53
2023-02-09T05:20:09.298Z,4.27
2023-02-09T05:22:37.975Z,3.83
2023-02-09T05:25:06.630Z,4.67
2023-02-09T05:27:34.792Z,3.53
2023-02-09T05:30:02.969Z,3.73
2023-02-09T05:32:31.117Z,3.93
2023-02-09T05:35:00.596Z,5.40
2023-02-09T05:37:28.767Z,3.43
2023-02-09T05:39:57.255Z,3.70
2023-02-09T05:42:27.443Z,3.77
2023-02-09T05:44:55.739Z,3.60
2023-02-09T05:47:26.565Z,3.57
2023-02-09T05:49:54.715Z,3.67
2023-02-09T05:52:26.132Z,3.57
2023-02-09T05:54:54.299Z,4.00
2023-02-09T05:57:22.403Z,3.77
2023-02-09T05:59:50.516Z,3.93
2023-02-09T06:02:18.750Z,3.90
2023-02-09T06:04:46.873Z,3.23
2023-02-09T06:07:15.091Z,4.60
2023-02-09T06:09:44.573Z,4.33
2023-02-09T06:12:12.835Z,3.93
2023-02-09T06:14:41.065Z,3.73
2023-02-09T06:17:09.148Z,4.20
2023-02-09T06:19:37.238Z,4.93
2023-02-09T06:22:05.400Z,4.20
2023-02-09T06:24:33.418Z,4.50
2023-02-09T06:27:02.828Z,4.53
2023-02-09T06:29:31.524Z,4.50
2023-02-09T06:31:59.678Z,3.93
2023-02-09T06:34:28.090Z,4.20
2023-02-09T06:36:56.152Z,4.60
2023-02-09T06:39:24.300Z,4.73
2023-02-09T06:41:52.919Z,4.60
2023-02-09T06:44:22.483Z,4.30
2023-02-09T06:46:50.566Z,4.33
2023-02-09T06:49:18.839Z,4.13
2023-02-09T06:51:47.174Z,5.37
2023-02-09T06:54:15.299Z,4.57
2023-02-09T06:56:43.405Z,4.47
2023-02-09T06:59:11.536Z,4.50
2023-02-09T07:01:41.348Z,4.40
2023-02-09T07:04:09.515Z,5.17
2023-02-09T07:06:37.616Z,4.00
2023-02-09T07:09:05.765Z,4.07
2023-02-09T07:11:34.066Z,4.57
2023-02-09T07:14:02.254Z,5.40
2023-02-09T07:16:30.432Z,4.03
2023-02-09T07:19:00.857Z,4.30
2023-02-09T07:21:29.047Z,3.67
2023-02-09T07:23:57.112Z,4.43
2023-02-09T07:26:25.198Z,5.77
2023-02-09T07:28:53.259Z,4.87
2023-02-09T07:31:21.476Z,5.03
2023-02-09T07:33:49.716Z,4.77
2023-02-09T07:36:19.692Z,4.57
2023-02-09T07:38:48.009Z,4.07
2023-02-09T07:41:19.439Z,4.90
2023-02-09T07:43:48.147Z,5.13
2023-02-09T07:46:19.075Z,5.00
2023-02-09T07:48:47.173Z,4.87
2023-02-09T07:51:15.790Z,4.93
2023-02-09T07:53:45.209Z,4.97
2023-02-09T07:56:14.169Z,5.17
2023-02-09T07:58:42.214Z,4.57
2023-02-09T08:01:13.781Z,4.20
2023-02-09T08:03:44.929Z,5.00
2023-02-09T08:06:25.995Z,4.73
2023-02-09T08:09:00.863Z,4.37
2023-02-09T08:11:35.166Z,4.87
2023-02-09T08:14:07.219Z,5.13
2023-02-09T08:16:36.194Z,5.80
2023-02-09T08:19:10.940Z,5.70
2023-02-09T08:21:43.941Z,5.70
2023-02-09T08:24:16.909Z,4.83
2023-02-09T08:26:45.533Z,5.37
2023-02-09T08:29:14.058Z,5.47
2023-02-09T08:31:42.360Z,5.73
2023-02-09T08:34:10.577Z,6.40
2023-02-09T08:36:39.878Z,4.97
2023-02-09T08:39:08.340Z,4.57
2023-02-09T08:41:37.859Z,4.77
2023-02-09T08:44:06.443Z,4.80
2023-02-09T08:46:36.687Z,6.03
2023-02-09T08:49:06.053Z,6.37
2023-02-09T08:51:34.162Z,6.30
2023-02-09T08:54:02.233Z,6.20
2023-02-09T08:56:30.389Z,6.63
2023-02-09T08:58:59.761Z,6.27
2023-02-09T09:01:28.068Z,5.37
2023-02-09T09:03:56.350Z,5.67
2023-02-09T09:06:24.444Z,6.50
2023-02-09T09:08:52.641Z,6.57
2023-02-09T09:11:20.763Z,5.43
2023-02-09T09:13:49.476Z,6.73
2023-02-09T09:16:22.892Z,5.80
2023-02-09T09:18:51.319Z,6.43
2023-02-09T09:21:20.483Z,6.47
2023-02-09T09:23:49.081Z,5.87
2023-02-09T09:26:18.485Z,6.70
2023-02-09T09:28:50.285Z,5.30
2023-02-09T09:31:21.008Z,5.33
2023-02-09T09:33:49.499Z,6.60
2023-02-09T09:36:17.645Z,5.63
2023-02-09T09:38:45.799Z,6.27
2023-02-09T09:41:25.714Z,6.53
2023-02-09T09:43:55.650Z,6.90
2023-02-09T09:46:36.497Z,6.07
2023-02-09T09:49:05.880Z,6.00
2023-02-09T09:51:42.663Z,6.87
2023-02-09T09:54:18.277Z,5.77
2023-02-09T09:56:46.644Z,5.30
2023-02-09T09:59:21.974Z,5.50
2023-02-09T10:01:54.405Z,5.43
2023-02-09T10:04:22.541Z,5.43
2023-02-09T10:07:00.398Z,6.97
2023-02-09T10:09:42.427Z,6.23
2023-02-09T10:12:26.525Z,6.27
2023-02-09T10:14:54.625Z,6.10
2023-02-09T10:17:24.034Z,5.83
2023-02-09T10:20:05.320Z,6.70
2023-02-09T10:22:33.510Z,5.80
2023-02-09T10:25:03.514Z,5.90
2023-02-09T10:27:33.395Z,5.07
2023-02-09T10:30:20.007Z,5.70
2023-02-09T10:32:49.632Z,5.30
2023-02-09T10:35:28.558Z,5.53
2023-02-09T10:38:01.713Z,5.70
2023-02-09T10:40:33.719Z,6.83
2023-02-09T10:43:05.610Z,6.83
2023-02-09T10:45:41.544Z,5.93
2023-02-09T10:48:20.347Z,4.77
2023-02-09T10:50:57.146Z,5.73
2023-02-09T10:53:30.666Z,5.70
2023-02-09T10:56:06.974Z,5.23
2023-02-09T10:58:38.312Z,5.47
2023-02-09T11:01:19.030Z,5.60
2023-02-09T11:04:05.595Z,5.63
2023-02-09T11:06:44.198Z,5.80
2023-02-09T11:09:18.163Z,5.87
2023-02-09T11:11:47.719Z,6.20
2023-02-09T11:14:19.845Z,7.07
2023-02-09T11:17:16.802Z,5.27
2023-02-09T11:20:16.393Z,6.67
2023-02-09T11:23:32.799Z,5.87
2023-02-09T11:26:10.126Z,5.20
2023-02-09T11:28:52.719Z,5.77
2023-02-09T11:32:08.585Z,5.33
2023-02-09T11:35:09.802Z,5.73
2023-02-09T11:37:51.967Z,5.43
2023-02-09T11:40:31.094Z,5.37
2023-02-09T11:43:14.429Z,5.93
2023-02-09T11:45:47.065Z,5.27
2023-02-09T11:48:24.885Z,5.10
2023-02-09T11:51:07.403Z,6.23
2023-02-09T11:53:46.229Z,5.20
2023-02-09T11:56:17.563Z,6.13
2023-02-09T11:58:56.830Z,5.97
2023-02-09T12:01:41.068Z,5.57
2023-02-09T12:04:19.724Z,5.50
2023-02-09T12:06:52.640Z,5.90
2023-02-09T12:09:45.321Z,5.87
2023-02-09T12:12:26.755Z,5.47
2023-02-09T12:15:14.672Z,5.80
2023-02-09T12:17:49.703Z,5.17
2023-02-09T12:20:29.250Z,5.83
2023-02-09T12:23:02.455Z,5.67
2023-02-09T12:25:51.567Z,5.07
2023-02-09T12:28:43.354Z,6.00
2023-02-09T12:31:24.607Z,5.77
2023-02-09T12:34:28.667Z,5.93
2023-02-09T12:37:28.072Z,4.90
2023-02-09T12:40:35.959Z,4.73
2023-02-09T12:43:28.008Z,4.13
2023-02-09T12:46:26.501Z,5.03
2023-02-09T12:49:15.630Z,5.37
2023-02-09T12:52:14.645Z,5.77
2023-02-09T12:54:52.824Z,6.47
2023-02-09T12:57:55.718Z,5.73
2023-02-09T13:00:43.111Z,5.40
2023-02-09T13:03:19.030Z,5.70
2023-02-09T13:05:48.881Z,6.70
2023-02-09T13:08:45.942Z,5.67
2023-02-09T13:11:29.547Z,5.60
2023-02-09T13:14:05.752Z,5.47
2023-02-09T13:17:04.505Z,5.97
2023-02-09T13:19:58.238Z,5.67
2023-02-09T13:22:46.020Z,6.13
2023-02-09T13:25:26.842Z,5.90
2023-02-09T13:27:54.953Z,5.03
2023-02-09T13:30:31.450Z,5.43
2023-02-09T13:33:17.107Z,5.10
2023-02-09T13:36:16.280Z,5.50
2023-02-09T13:38:51.659Z,5.80
2023-02-09T13:41:35.868Z,4.90
2023-02-09T13:44:04.802Z,5.33
2023-02-09T13:46:35.255Z,5.40
2023-02-09T13:49:18.295Z,5.73
2023-02-09T13:51:46.456Z,6.37
2023-02-09T13:54:21.064Z,6.07
2023-02-09T13:56:51.373Z,5.47
2023-02-09T13:59:19.679Z,4.97
2023-02-09T14:01:50.315Z,5.07
2023-02-09T14:04:25.395Z,6.00
2023-02-09T14:07:01.436Z,5.53
2023-02-09T14:09:34.070Z,5.97
2023-02-09T14:12:09.822Z,6.20
2023-02-09T14:15:01.320Z,5.63
2023-02-09T14:17:35.580Z,5.13
2023-02-09T14:20:04.924Z,5.37
2023-02-09T14:22:36.326Z,5.33
2023-02-09T14:25:22.270Z,5.00
2023-02-09T14:27:50.663Z,5.10
2023-02-09T14:30:22.567Z,5.53
2023-02-09T14:32:56.447Z,5.30
2023-02-09T14:35:28.724Z,4.83
2023-02-09T14:38:00.569Z,4.80
2023-02-09T14:40:34.182Z,5.27
2023-02-09T14:43:21.952Z,5.30
2023-02-09T14:46:01.126Z,5.03
2023-02-09T14:48:32.088Z,4.83
2023-02-09T14:51:10.803Z,5.30
2023-02-09T14:53:43.313Z,5.73
2023-02-09T14:56:23.421Z,5.20
2023-02-09T14:58:51.622Z,5.80
2023-02-09T15:01:19.735Z,5.40
2023-02-09T15:03:49.213Z,5.87
2023-02-09T15:06:17.326Z,6.93
2023-02-09T15:08:45.521Z,7.87
2023-02-09T15:11:42.607Z,7.20
2023-02-09T15:14:12.930Z,5.80
2023-02-09T15:16:41.110Z,5.90
2023-02-09T15:19:17.458Z,6.27
2023-02-09T15:21:50.654Z,5.97
2023-02-09T15:24:24.247Z,6.00
2023-02-09T15:26:52.387Z,6.03
2023-02-09T15:29:20.666Z,5.63
2023-02-09T15:31:48.808Z,6.07
2023-02-09T15:34:18.251Z,5.67
2023-02-09T15:36:46.612Z,6.03
2023-02-09T15:39:23.121Z,6.40
2023-02-09T15:42:08.691Z,6.50
2023-02-09T15:44:54.696Z,6.70
2023-02-09T15:47:40.539Z,6.60
2023-02-09T15:50:10.712Z,6.63
2023-02-09T15:52:39.088Z,6.83
2023-02-09T15:55:08.634Z,6.90
2023-02-09T15:57:37.021Z,6.97
2023-02-09T16:00:15.655Z,6.93
2023-02-09T16:02:44.055Z,6.00
2023-02-09T16:05:13.804Z,6.17
2023-02-09T16:07:42.264Z,5.90
2023-02-09T16:10:18.195Z,6.50
2023-02-09T16:12:46.720Z,5.83
2023-02-09T16:15:17.325Z,6.43
2023-02-09T16:17:45.605Z,6.50
2023-02-09T16:20:16.728Z,5.73
2023-02-09T16:22:48.770Z,6.00
2023-02-09T16:25:23.562Z,5.53
2023-02-09T16:27:53.834Z,6.07
2023-02-09T16:30:25.592Z,5.93
2023-02-09T16:32:54.247Z,6.57
2023-02-09T16:35:26.198Z,6.17
2023-02-09T16:37:56.207Z,6.43
2023-02-09T16:40:29.250Z,6.87
2023-02-09T16:43:00.797Z,5.83
2023-02-09T16:45:36.397Z,6.03
2023-02-09T16:48:05.822Z,7.00
2023-02-09T16:50:41.887Z,6.23
2023-02-09T16:53:18.331Z,6.67
2023-02-09T16:55:49.424Z,6.30
2023-02-09T16:58:18.418Z,6.27
2023-02-09T17:00:47.980Z,5.70
2023-02-09T17:03:20.721Z,6.30
2023-02-09T17:05:54.997Z,5.93
2023-02-09T17:08:26.423Z,6.07
2023-02-09T17:10:57.481Z,6.33
2023-02-09T17:13:26.443Z,5.87
2023-02-09T17:15:59.437Z,6.63
2023-02-09T17:18:32.557Z,6.37
2023-02-09T17:21:07.614Z,6.57
2023-02-09T17:23:36.878Z,6.83
2023-02-09T17:26:05.670Z,6.40
2023-02-09T17:28:34.119Z,6.57
2023-02-09T17:31:05.371Z,5.60
2023-02-09T17:33:36.667Z,5.87
2023-02-09T17:36:26.873Z,5.67
2023-02-09T17:38:57.721Z,5.17
2023-02-09T17:41:34.013Z,5.63
2023-02-09T17:44:24.251Z,6.57
2023-02-09T17:47:00.712Z,6.23
2023-02-09T17:49:28.976Z,5.87
2023-02-09T17:51:58.628Z,7.33
2023-02-09T17:54:27.774Z,6.40
2023-02-09T17:56:56.093Z,7.27
2023-02-09T17:59:24.356Z,6.97
2023-02-09T18:01:55.167Z,6.40
2023-02-09T18:04:27.255Z,6.63
2023-02-09T18:06:57.774Z,7.43
2023-02-09T18:09:27.583Z,5.90
2023-02-09T18:12:02.512Z,8.83
2023-02-09T18:14:34.233Z,6.97
2023-02-09T18:17:03.371Z,8.10
2023-02-09T18:19:32.967Z,7.77
2023-02-09T18:22:03.235Z,6.40
2023-02-09T18:24:35.482Z,8.97
2023-02-09T18:27:17.070Z,6.87
2023-02-09T18:29:58.635Z,7.50
2023-02-09T18:32:30.004Z,7.23
2023-02-09T18:34:58.282Z,8.03
2023-02-09T18:37:26.637Z,8.03
2023-02-09T18:39:56.356Z,6.40
2023-02-09T18:42:24.665Z,6.03
2023-02-09T18:44:53.028Z,7.40
2023-02-09T18:47:21.648Z,6.23
2023-02-09T18:49:50.162Z,6.73
2023-02-09T18:52:25.561Z,6.43
2023-02-09T18:54:55.378Z,6.43
2023-02-09T18:57:23.835Z,6.70
2023-02-09T18:59:52.375Z,6.73
2023-02-09T19:02:23.479Z,6.97
2023-02-09T19:04:53.991Z,6.83
2023-02-09T19:07:32.212Z,6.80
2023-02-09T19:10:01.966Z,6.63
2023-02-09T19:12:30.733Z,7.90
2023-02-09T19:14:59.194Z,7.40
2023-02-09T19:17:37.233Z,6.77
2023-02-09T19:20:05.958Z,7.30
2023-02-09T19:22:34.556Z,7.90
2023-02-09T19:25:04.340Z,8.13
2023-02-09T19:27:32.767Z,7.10
2023-02-09T19:30:01.252Z,8.20
2023-02-09T19:32:29.802Z,7.27
2023-02-09T19:34:58.290Z,7.53
2023-02-09T19:37:45.617Z,7.63
2023-02-09T19:40:21.528Z,7.63
2023-02-09T19:42:50.194Z,8.57
2023-02-09T19:45:18.846Z,8.07
2023-02-09T19:47:47.303Z,8.30
2023-02-09T19:50:16.503Z,7.97
2023-02-09T19:52:47.542Z,8.00
2023-02-09T19:55:17.198Z,8.47
2023-02-09T19:57:45.368Z,7.70
2023-02-09T20:00:18.305Z,7.73
2023-02-09T20:02:46.972Z,7.63
2023-02-09T20:05:15.967Z,7.30
2023-02-09T20:07:44.304Z,7.80
2023-02-09T20:10:12.545Z,7.63
2023-02-09T20:12:42.184Z,8.00
2023-02-09T20:15:10.983Z,7.70
2023-02-09T20:17:39.185Z,7.53
2023-02-09T20:20:08.286Z,7.63
2023-02-09T20:22:36.757Z,7.30
2023-02-09T20:25:05.567Z,8.07
2023-02-09T20:27:34.370Z,8.00
2023-02-09T20:30:05.600Z,7.70
2023-02-09T20:32:35.300Z,7.57
2023-02-09T20:35:03.696Z,7.13
2023-02-09T20:37:32.286Z,8.13
2023-02-09T20:40:01.403Z,8.33
2023-02-09T20:42:47.346Z,7.87
2023-02-09T20:45:36.209Z,7.37
2023-02-09T20:48:06.434Z,7.80
2023-02-09T20:50:35.042Z,8.43
2023-02-09T20:53:03.442Z,7.27
2023-02-09T20:55:32.058Z,7.80
2023-02-09T20:58:00.233Z,8.73
2023-02-09T21:00:29.818Z,8.17
2023-02-09T21:02:58.027Z,8.10
2023-02-09T21:05:26.204Z,8.30
2023-02-09T21:07:55.333Z,8.90
2023-02-09T21:10:23.967Z,8.33
2023-02-09T21:12:52.389Z,8.23
2023-02-09T21:15:20.642Z,7.77
2023-02-09T21:17:51.566Z,8.70
2023-02-09T21:20:19.875Z,8.27
2023-02-09T21:22:49.982Z,8.23
2023-02-09T21:25:19.265Z,9.47
2023-02-09T21:27:47.546Z,8.60
2023-02-09T21:30:16.494Z,9.43
2023-02-09T21:32:44.686Z,9.33
2023-02-09T21:35:14.541Z,9.73
2023-02-09T21:37:44.421Z,9.70
2023-02-09T21:40:15.993Z,9.87
2023-02-09T21:42:44.241Z,8.90
2023-02-09T21:45:12.436Z,10.30
2023-02-09T21:47:41.413Z,11.10
2023-02-09T21:50:14.625Z,10.03
2023-02-09T21:52:42.855Z,9.93
2023-02-09T21:55:11.010Z,10.90
2023-02-09T21:57:39.231Z,9.90
2023-02-09T22:00:09.696Z,12.60
2023-02-09T22:02:38.386Z,12.80
2023-02-09T22:05:08.331Z,10.70
2023-02-09T22:07:37.906Z,11.10
2023-02-09T22:10:07.343Z,11.63
2023-02-09T22:12:36.352Z,11.70
2023-02-09T22:15:04.961Z,11.27
2023-02-09T22:17:33.703Z,11.20
2023-02-09T22:20:01.897Z,11.10
2023-02-09T22:22:30.216Z,10.23
2023-02-09T22:24:59.733Z,10.67
2023-02-09T22:27:27.811Z,11.97
2023-02-09T22:29:56.032Z,11.97
2023-02-09T22:32:24.442Z,11.10
2023-02-09T22:34:52.599Z,10.90
2023-02-09T22:37:20.690Z,11.87
2023-02-09T22:39:48.862Z,11.77
2023-02-09T22:42:18.335Z,12.20
2023-02-09T22:44:46.566Z,11.67
2023-02-09T22:47:14.669Z,11.00
2023-02-09T22:49:45.282Z,11.80
2023-02-09T22:52:13.748Z,11.13
2023-02-09T22:54:41.847Z,11.20
2023-02-09T22:57:10.205Z,12.10
2023-02-09T22:59:39.659Z,11.73
2023-02-09T23:02:07.745Z,11.67
2023-02-09T23:04:36.042Z,11.50
2023-02-09T23:07:04.901Z,11.30
2023-02-09T23:09:33.217Z,11.63
2023-02-09T23:12:01.327Z,11.63
2023-02-09T23:14:29.576Z,11.87
2023-02-09T23:16:59.555Z,11.30
2023-02-09T23:19:27.672Z,10.03
2023-02-09T23:21:55.922Z,12.60
2023-02-09T23:24:24.390Z,11.20
2023-02-09T23:26:54.203Z,11.47
2023-02-09T23:29:22.926Z,12.00
2023-02-09T23:31:51.202Z,11.93
2023-02-09T23:34:23.245Z,12.00
2023-02-09T23:36:51.907Z,11.27
2023-02-09T23:39:23.406Z,11.93
2023-02-09T23:41:51.485Z,12.07
2023-02-09T23:44:19.748Z,12.87
2023-02-09T23:46:48.196Z,12.60
2023-02-09T23:49:16.392Z,12.47
2023-02-09T23:51:46.841Z,11.70
2023-02-09T23:54:15.322Z,11.47
2023-02-09T23:56:44.937Z,11.40
2023-02-09T23:59:16.004Z,10.83
